Time;durP1;ratioP1;P1;durP2;ratioP2;P2;SDS_P1;SDS_P2;PMS_P1;PMS_P2;Temp;Humidity;BMP_temperature;BMP_pressure;BME280_temperature;BME280_humidity;BME280_pressure;Samples;Min_cycle;Max_cycle;Signal;HPM_P1;HPM_P2
2022/11/14 00:00:14;;;;;;;29.95;16.00;;;;;;;4.84;100.00;99789.13;4896366;29;20127;-85
2022/11/14 00:03:17;;;;;;;32.15;15.90;;;;;;;4.89;100.00;99789.84;4901525;29;20048;-84
2022/11/14 00:06:21;;;;;;;29.35;16.25;;;;;;;4.86;100.00;99784.75;4914822;29;20066;-83
2022/11/14 00:09:28;;;;;;;31.27;16.83;;;;;;;4.82;100.00;99783.97;4901717;29;20108;-84
2022/11/14 00:12:34;;;;;;;35.92;19.50;;;;;;;4.85;100.00;99790.84;4899068;29;20059;-84
2022/11/14 00:15:38;;;;;;;30.80;17.25;;;;;;;4.88;100.00;99795.94;4897961;29;20152;-86
2022/11/14 00:18:41;;;;;;;36.05;19.88;;;;;;;4.81;100.00;99795.25;4920530;29;20089;-84
2022/11/14 00:21:45;;;;;;;35.13;18.73;;;;;;;4.83;100.00;99803.00;4921739;29;20028;-87
2022/11/14 00:24:49;;;;;;;35.30;18.92;;;;;;;4.78;100.00;99801.38;4902984;29;20040;-86
2022/11/14 00:27:55;;;;;;;39.72;20.13;;;;;;;4.82;100.00;99796.94;4907407;29;20106;-86
2022/11/14 00:30:59;;;;;;;41.47;21.83;;;;;;;4.81;100.00;99803.88;4906998;29;20123;-86
2022/11/14 00:34:03;;;;;;;36.08;20.35;;;;;;;4.88;100.00;99804.56;4890573;29;20051;-85
2022/11/14 00:37:06;;;;;;;43.78;21.98;;;;;;;4.79;100.00;99804.81;4917715;29;20505;-86
2022/11/14 00:40:13;;;;;;;43.42;22.30;;;;;;;4.81;100.00;99803.88;4890797;29;20505;-86
2022/11/14 00:43:23;;;;;;;47.88;22.92;;;;;;;4.84;100.00;99800.38;4884696;29;20049;-85
2022/11/14 00:46:27;;;;;;;49.10;23.70;;;;;;;4.88;100.00;99795.94;4905967;29;20084;-84
2022/11/14 00:49:30;;;;;;;47.70;23.38;;;;;;;4.95;100.00;99805.25;4892288;29;20041;-85
2022/11/14 00:52:33;;;;;;;48.05;23.38;;;;;;;4.93;100.00;99799.22;4899933;29;20154;-86
2022/11/14 00:55:37;;;;;;;40.00;19.60;;;;;;;4.93;100.00;99801.84;4900822;29;20071;-86
2022/11/14 00:58:41;;;;;;;37.63;18.80;;;;;;;4.79;100.00;99781.47;4892109;29;20040;-87
2022/11/14 01:01:44;;;;;;;34.80;19.02;;;;;;;4.78;100.00;99778.00;4891265;29;20041;-84
2022/11/14 01:04:47;;;;;;;37.50;19.38;;;;;;;4.86;100.00;99785.59;4895452;29;20552;-85
2022/11/14 01:07:57;;;;;;;39.15;20.02;;;;;;;4.79;100.00;99779.72;4897983;29;20049;-86
2022/11/14 01:11:07;;;;;;;40.28;20.15;;;;;;;4.89;100.00;99767.34;4896834;29;20064;-85
2022/11/14 01:14:10;;;;;;;38.60;18.63;;;;;;;4.87;100.00;99778.63;4887345;29;20064;-85
2022/11/14 01:17:13;;;;;;;35.85;19.17;;;;;;;4.93;100.00;99770.66;4909382;29;20143;-85
2022/11/14 01:20:16;;;;;;;39.35;20.38;;;;;;;4.91;100.00;99764.69;4906064;29;20048;-86
2022/11/14 01:23:27;;;;;;;37.73;21.27;;;;;;;4.96;100.00;99767.16;4904415;29;20186;-86
2022/11/14 01:26:33;;;;;;;43.85;22.23;;;;;;;5.02;100.00;99772.16;4911194;29;20036;-85
2022/11/14 01:29:45;;;;;;;39.22;21.08;;;;;;;5.09;100.00;99771.09;4895694;29;20139;-86
2022/11/14 01:32:48;;;;;;;38.58;20.27;;;;;;;5.08;100.00;99771.97;4908484;29;20068;-86
2022/11/14 01:35:51;;;;;;;39.45;19.70;;;;;;;5.11;100.00;99763.25;4894993;29;20044;-85
2022/11/14 01:38:55;;;;;;;42.63;20.95;;;;;;;5.04;100.00;99760.81;4893775;29;20051;-85
2022/11/14 01:41:58;;;;;;;36.38;19.55;;;;;;;4.99;100.00;99749.72;4895699;29;20059;-85
2022/11/14 01:45:40;;;;;;;40.15;20.38;;;;;;;5.11;100.00;99751.09;4899914;29;20192;-85
2022/11/14 01:48:43;;;;;;;;;;;;;;;5.08;100.00;99750.31;4893324;29;20056;-85
2022/11/14 01:52:06;;;;;;;36.45;19.88;;;;;;;5.15;100.00;99750.13;4894862;29;20383;-85
2022/11/14 01:55:09;;;;;;;37.83;19.48;;;;;;;5.15;100.00;99738.88;4906991;29;20075;-86
2022/11/14 01:58:15;;;;;;;41.08;19.80;;;;;;;5.15;100.00;99733.66;4908921;29;20044;-85
2022/11/14 02:01:19;;;;;;;33.83;18.23;;;;;;;5.08;100.00;99726.94;4905078;29;20091;-85
2022/11/14 02:04:44;;;;;;;37.45;20.98;;;;;;;4.98;100.00;99729.84;4893701;29;20048;-85
2022/11/14 02:07:48;;;;;;;36.63;19.13;;;;;;;4.97;100.00;99733.34;4899346;29;20041;-85
2022/11/14 02:10:51;;;;;;;33.03;17.88;;;;;;;4.94;100.00;99738.63;4898507;29;20060;-86
2022/11/14 02:13:55;;;;;;;29.65;17.23;;;;;;;4.93;100.00;99735.16;4916275;29;20111;-86
2022/11/14 02:16:59;;;;;;;32.67;18.13;;;;;;;4.93;100.00;99734.31;4884776;29;20119;-86
2022/11/14 02:20:02;;;;;;;32.28;18.30;;;;;;;5.06;100.00;99727.00;4897277;29;20052;-86
2022/11/14 02:23:05;;;;;;;33.45;19.13;;;;;;;4.93;100.00;99724.78;4894768;29;20192;-87
2022/11/14 02:26:10;;;;;;;36.42;20.98;;;;;;;4.96;100.00;99728.19;4885980;29;20048;-85
2022/11/14 02:29:15;;;;;;;38.95;22.55;;;;;;;4.93;100.00;99723.91;4901412;29;20056;-85
2022/11/14 02:32:18;;;;;;;36.70;19.00;;;;;;;5.03;100.00;99729.69;4917891;29;20052;-85
2022/11/14 02:35:30;;;;;;;37.30;20.55;;;;;;;4.96;100.00;99718.63;4913568;29;20052;-85
2022/11/14 02:38:35;;;;;;;39.00;22.38;;;;;;;4.95;100.00;99729.06;4892317;29;20091;-85
2022/11/14 02:41:38;;;;;;;40.38;21.38;;;;;;;5.03;100.00;99730.56;4907119;29;20032;-85
2022/11/14 02:44:42;;;;;;;40.28;21.90;;;;;;;5.04;100.00;99734.00;4912351;29;20111;-86
2022/11/14 02:47:46;;;;;;;41.30;23.15;;;;;;;5.07;100.00;99733.06;4896740;29;20044;-85
2022/11/14 02:50:49;;;;;;;42.08;23.17;;;;;;;5.01;100.00;99734.94;4894897;29;20063;-85
2022/11/14 02:53:52;;;;;;;45.63;25.48;;;;;;;4.91;100.00;99729.16;4903353;29;20480;-84
2022/11/14 02:56:55;;;;;;;41.35;23.15;;;;;;;4.95;100.00;99726.47;4889396;29;20155;-85
2022/11/14 03:00:00;;;;;;;38.03;21.60;;;;;;;4.97;100.00;99725.53;4896852;29;20075;-86
2022/11/14 03:03:04;;;;;;;40.65;22.75;;;;;;;4.96;100.00;99730.78;4909484;29;20477;-84
2022/11/14 03:06:07;;;;;;;38.38;21.98;;;;;;;4.84;100.00;99732.00;4905417;29;20488;-86
2022/11/14 03:09:10;;;;;;;38.13;21.85;;;;;;;4.91;100.00;99720.53;4891385;29;20090;-85
2022/11/14 03:12:18;;;;;;;38.47;20.75;;;;;;;5.02;100.00;99720.22;4899239;29;20049;-84
2022/11/14 03:15:22;;;;;;;42.30;22.60;;;;;;;4.91;100.00;99717.94;4913813;29;20084;-85
2022/11/14 03:18:29;;;;;;;40.47;22.02;;;;;;;4.98;100.00;99710.81;4888987;29;20048;-84
2022/11/14 03:21:32;;;;;;;40.63;21.85;;;;;;;5.04;100.00;99713.22;4893580;29;20155;-86
2022/11/14 03:24:35;;;;;;;42.45;24.15;;;;;;;4.94;100.00;99712.66;4894156;29;20040;-86
2022/11/14 03:27:38;;;;;;;41.00;23.05;;;;;;;4.96;100.00;99710.00;4902134;29;20037;-86
2022/11/14 03:30:42;;;;;;;37.40;21.55;;;;;;;5.10;100.00;99718.22;4895383;29;20052;-85
2022/11/14 03:33:45;;;;;;;39.95;21.20;;;;;;;5.14;100.00;99719.81;4907409;29;20044;-85
2022/11/14 03:36:48;;;;;;;36.47;20.73;;;;;;;5.23;100.00;99708.31;4899899;29;20079;-85
2022/11/14 03:39:52;;;;;;;40.15;23.10;;;;;;;5.20;100.00;99713.59;4890916;29;20052;-85
2022/11/14 03:42:56;;;;;;;40.90;22.52;;;;;;;5.19;100.00;99711.88;4886692;29;20053;-85
2022/11/14 03:46:01;;;;;;;48.10;25.58;;;;;;;5.10;100.00;99705.25;4895845;29;20104;-86
2022/11/14 03:49:04;;;;;;;57.22;28.95;;;;;;;5.05;100.00;99704.53;4899302;29;20067;-85
2022/11/14 03:52:08;;;;;;;51.05;28.00;;;;;;;5.09;100.00;99708.75;4902588;29;20386;-87
2022/11/14 03:55:11;;;;;;;47.00;24.77;;;;;;;5.14;100.00;99695.63;4897383;29;20120;-86
2022/11/14 03:58:14;;;;;;;45.47;25.60;;;;;;;5.09;100.00;99695.75;4889859;29;20130;-86
2022/11/14 04:01:19;;;;;;;45.80;24.90;;;;;;;5.26;100.00;99690.03;4914723;29;20071;-85
2022/11/14 04:04:23;;;;;;;45.78;24.98;;;;;;;5.20;100.00;99686.75;4905377;29;20486;-85
2022/11/14 04:07:26;;;;;;;41.33;23.98;;;;;;;5.14;100.00;99680.03;4895356;29;20053;-84
2022/11/14 04:10:30;;;;;;;41.42;23.38;;;;;;;5.17;100.00;99672.97;4897721;29;20504;-85
2022/11/14 04:13:33;;;;;;;34.65;20.35;;;;;;;5.14;100.00;99682.63;4898911;29;20468;-85
2022/11/14 04:16:36;;;;;;;39.55;22.42;;;;;;;5.17;100.00;99677.31;4902688;29;20104;-84
2022/11/14 04:19:39;;;;;;;36.70;20.27;;;;;;;5.23;100.00;99668.47;4896155;29;20449;-85
2022/11/14 04:22:44;;;;;;;34.92;19.90;;;;;;;5.18;100.00;99666.88;4894288;29;20037;-84
2022/11/14 04:25:47;;;;;;;34.15;19.85;;;;;;;5.15;100.00;99655.72;4894714;29;20044;-85
2022/11/14 04:28:51;;;;;;;31.10;19.17;;;;;;;5.21;100.00;99660.72;4895162;29;20143;-87
2022/11/14 04:31:56;;;;;;;34.30;19.58;;;;;;;5.12;100.00;99667.09;4918561;29;20051;-84
2022/11/14 04:35:00;;;;;;;34.50;19.45;;;;;;;5.04;100.00;99654.31;4916106;29;20036;-86
2022/11/14 04:38:03;;;;;;;32.80;19.20;;;;;;;4.98;100.00;99659.72;4937445;29;20032;-86
2022/11/14 04:41:09;;;;;;;30.20;17.55;;;;;;;4.98;100.00;99651.91;4903961;29;20040;-84
2022/11/14 04:44:12;;;;;;;33.53;19.02;;;;;;;4.98;100.00;99656.28;4907340;29;20048;-87
2022/11/14 04:47:17;;;;;;;33.10;19.02;;;;;;;4.98;100.00;99651.91;4905319;29;20467;-86
2022/11/14 04:50:22;;;;;;;27.27;17.25;;;;;;;4.94;100.00;99645.13;4913929;29;20037;-84
2022/11/14 04:53:25;;;;;;;33.95;18.35;;;;;;;4.90;100.00;99644.38;4892570;29;20077;-84
2022/11/14 04:56:29;;;;;;;31.00;17.90;;;;;;;4.88;100.00;99648.75;4897137;29;20084;-86
2022/11/14 04:59:32;;;;;;;28.08;17.20;;;;;;;4.86;100.00;99650.56;4903006;29;20040;-85
2022/11/14 05:02:35;;;;;;;28.17;17.60;;;;;;;4.88;100.00;99642.72;4903052;29;20091;-86
2022/11/14 05:05:40;;;;;;;31.38;18.27;;;;;;;4.83;100.00;99639.41;4895134;29;20052;-85
2022/11/14 05:08:45;;;;;;;31.35;16.70;;;;;;;4.83;100.00;99640.25;4901568;29;20412;-87
2022/11/14 05:11:50;;;;;;;30.35;17.77;;;;;;;4.84;100.00;99630.72;4902090;29;20373;-86
2022/11/14 05:14:56;;;;;;;27.35;17.33;;;;;;;4.80;100.00;99632.56;4900934;29;20047;-85
2022/11/14 05:18:00;;;;;;;32.78;18.65;;;;;;;4.75;100.00;99631.88;4893975;29;20093;-84
2022/11/14 05:21:05;;;;;;;30.73;17.63;;;;;;;4.73;100.00;99623.28;4918200;29;20119;-84
2022/11/14 05:24:09;;;;;;;29.02;17.15;;;;;;;4.72;100.00;99632.78;4908241;29;20064;-85
2022/11/14 05:27:12;;;;;;;27.15;16.50;;;;;;;4.78;100.00;99635.19;4893716;29;20053;-85
2022/11/14 05:30:16;;;;;;;34.53;18.65;;;;;;;4.82;100.00;99630.78;4901431;29;20048;-86
2022/11/14 05:33:20;;;;;;;35.80;20.92;;;;;;;4.75;100.00;99631.88;4895160;29;20486;-85
2022/11/14 05:36:25;;;;;;;37.92;20.90;;;;;;;4.86;100.00;99626.34;4896140;29;20044;-87
2022/11/14 05:39:28;;;;;;;35.13;19.50;;;;;;;5.12;100.00;99627.25;4895125;29;20532;-87
2022/11/14 05:42:32;;;;;;;36.30;22.13;;;;;;;5.11;100.00;99635.97;4896480;29;20044;-85
2022/11/14 05:45:35;;;;;;;35.20;20.65;;;;;;;5.02;100.00;99626.69;4896635;29;20067;-84
2022/11/14 05:48:39;;;;;;;41.90;23.10;;;;;;;4.94;100.00;99639.94;4905090;29;20047;-84
2022/11/14 05:51:42;;;;;;;35.63;21.55;;;;;;;5.00;100.00;99644.06;4910302;29;20040;-85
2022/11/14 05:54:49;;;;;;;36.13;19.48;;;;;;;4.90;100.00;99633.97;4898982;29;20154;-85
2022/11/14 05:57:56;;;;;;;33.08;20.25;;;;;;;4.88;100.00;99630.56;4898641;29;20067;-87
2022/11/14 06:01:07;;;;;;;32.25;18.98;;;;;;;4.74;100.00;99614.56;4908061;29;20043;-84
2022/11/14 06:04:15;;;;;;;31.40;18.70;;;;;;;4.67;100.00;99629.47;4902388;29;20040;-86
2022/11/14 06:07:19;;;;;;;30.65;19.05;;;;;;;4.67;100.00;99626.88;4896480;29;20044;-82
2022/11/14 06:10:24;;;;;;;29.73;18.90;;;;;;;4.72;100.00;99626.78;4905899;29;20044;-85
2022/11/14 06:13:29;;;;;;;30.65;17.88;;;;;;;4.65;100.00;99626.94;4876946;29;20105;-86
2022/11/14 06:16:32;;;;;;;32.88;18.98;;;;;;;5.77;100.00;99627.72;4810297;29;1546526;-87
2022/11/14 06:19:38;;;;;;;31.27;17.90;;;;;;;5.59;100.00;99630.94;4871680;29;20068;-85
2022/11/14 06:22:41;;;;;;;24.58;13.18;;;;;;;11.07;100.00;99624.81;4881703;29;20060;-85
2022/11/14 06:25:49;;;;;;;27.23;14.38;;;;;;;11.80;99.61;99634.66;4885074;29;20103;-87
2022/11/14 06:28:53;;;;;;;31.08;18.95;;;;;;;6.78;100.00;99643.19;4866764;29;20064;-85
2022/11/14 06:31:56;;;;;;;32.13;19.15;;;;;;;5.88;100.00;99642.94;4884830;29;20067;-86
2022/11/14 06:35:00;;;;;;;33.17;20.35;;;;;;;5.38;100.00;99638.56;4852518;29;20056;-85
2022/11/14 06:38:04;;;;;;;39.67;23.73;;;;;;;5.20;100.00;99651.25;4887134;29;20069;-86
2022/11/14 06:41:18;;;;;;;47.25;25.33;;;;;;;5.03;100.00;99646.56;4868702;29;20045;-85
2022/11/14 06:44:22;;;;;;;41.28;22.80;;;;;;;4.97;100.00;99637.25;4899529;29;20064;-84
2022/11/14 06:47:25;;;;;;;46.33;24.85;;;;;;;5.16;100.00;99647.88;4918756;29;20040;-84
2022/11/14 06:50:29;;;;;;;43.85;25.48;;;;;;;5.04;100.00;99641.31;4905755;29;20059;-86
2022/11/14 06:53:34;;;;;;;41.47;23.95;;;;;;;5.12;100.00;99643.72;4900561;29;20037;-85
2022/11/14 06:56:39;;;;;;;43.90;24.33;;;;;;;4.88;100.00;99646.16;4903293;29;20064;-86
2022/11/14 06:59:41;;;;;;;40.45;23.45;;;;;;;5.01;100.00;99651.81;4904274;29;20069;-85
2022/11/14 07:02:46;;;;;;;41.05;23.05;;;;;;;5.00;100.00;99660.53;4916878;29;20115;-86
2022/11/14 07:05:51;;;;;;;45.00;23.67;;;;;;;4.88;100.00;99663.50;4894561;29;20104;-86
2022/11/14 07:08:56;;;;;;;46.47;22.63;;;;;;;4.90;100.00;99653.91;4900531;29;20119;-89
2022/11/14 07:12:08;;;;;;;44.80;24.02;;;;;;;4.95;100.00;99664.13;4898853;29;20586;-86
2022/11/14 07:15:12;;;;;;;51.20;25.08;;;;;;;4.95;100.00;99661.53;4909804;29;20720;-84
2022/11/14 07:18:16;;;;;;;49.92;26.35;;;;;;;5.13;100.00;99667.91;4915014;29;20056;-86
2022/11/14 07:21:21;;;;;;;49.15;27.27;;;;;;;5.02;100.00;99670.84;4896705;29;20432;-85
2022/11/14 07:24:27;;;;;;;47.13;26.10;;;;;;;5.11;100.00;99672.34;4920525;29;20547;-85
2022/11/14 07:27:32;;;;;;;58.13;28.80;;;;;;;4.92;100.00;99675.47;4896605;29;20091;-87
2022/11/14 07:30:37;;;;;;;54.50;29.40;;;;;;;4.89;100.00;99675.56;4897560;29;20050;-83
2022/11/14 07:33:48;;;;;;;53.13;27.92;;;;;;;5.00;100.00;99683.91;4898620;29;20056;-85
2022/11/14 07:36:53;;;;;;;47.05;25.08;;;;;;;5.03;100.00;99673.41;4912400;29;20048;-84
2022/11/14 07:40:03;;;;;;;44.65;24.10;;;;;;;5.21;100.00;99663.31;4889510;29;20056;-85
2022/11/14 07:43:13;;;;;;;40.70;24.30;;;;;;;5.20;100.00;99672.03;4892539;29;20099;-85
2022/11/14 07:46:21;;;;;;;43.88;22.52;;;;;;;5.27;100.00;99667.50;4900833;29;20059;-85
2022/11/14 07:49:26;;;;;;;41.03;22.50;;;;;;;5.29;100.00;99673.47;4901266;29;20127;-84
2022/11/14 07:52:30;;;;;;;40.88;22.85;;;;;;;5.38;100.00;99667.13;4899920;29;20420;-85
2022/11/14 07:55:42;;;;;;;40.78;22.92;;;;;;;5.49;100.00;99678.03;4901786;29;20040;-85
2022/11/14 07:58:47;;;;;;;38.10;20.92;;;;;;;5.53;100.00;99682.22;4891375;29;20048;-88
2022/11/14 08:01:56;;;;;;;36.80;20.98;;;;;;;5.60;100.00;99676.84;4913421;29;20055;-84
2022/11/14 08:05:03;;;;;;;42.78;22.10;;;;;;;5.86;100.00;99672.50;4908267;29;20076;-86
2022/11/14 08:08:10;;;;;;;35.75;19.80;;;;;;;5.85;100.00;99676.84;4900337;29;20048;-86
2022/11/14 08:11:46;;;;;;;33.10;19.70;;;;;;;6.02;100.00;99665.00;4917850;29;20488;-87
2022/11/14 08:14:44;;;;;;;35.80;19.58;;;;;;;6.25;100.00;99669.41;4907774;29;20100;-85
2022/11/14 08:17:51;;;;;;;33.70;19.85;;;;;;;6.51;100.00;99661.56;4900462;29;20079;-85
2022/11/14 08:20:58;;;;;;;31.40;17.70;;;;;;;7.31;100.00;99658.50;4919770;29;20047;-85
2022/11/14 08:24:03;;;;;;;32.22;19.35;;;;;;;7.45;100.00;99653.56;4906362;29;20076;-87
2022/11/14 08:27:13;;;;;;;29.70;18.42;;;;;;;7.27;100.00;99655.16;4906323;29;20055;-88
2022/11/14 08:30:17;;;;;;;32.30;18.83;;;;;;;7.34;100.00;99650.56;4899369;29;20060;-86
2022/11/14 08:33:23;;;;;;;34.00;17.98;;;;;;;7.50;100.00;99650.75;4910044;29;20062;-86
2022/11/14 08:36:27;;;;;;;27.48;17.52;;;;;;;7.83;100.00;99646.78;4892639;29;20052;-87
2022/11/14 08:39:30;;;;;;;30.27;17.42;;;;;;;7.86;100.00;99644.06;4891951;29;20481;-85
2022/11/14 08:42:33;;;;;;;31.48;18.08;;;;;;;8.33;100.00;99637.63;4903215;29;20051;-85
2022/11/14 08:45:37;;;;;;;31.23;17.33;;;;;;;8.69;98.89;99643.03;4895500;29;20045;-85
2022/11/14 08:48:40;;;;;;;27.45;16.48;;;;;;;8.57;99.81;99642.69;4914543;29;20043;-85
2022/11/14 08:51:51;;;;;;;27.25;17.08;;;;;;;8.51;100.00;99653.38;4924428;29;20036;-85
2022/11/14 08:54:55;;;;;;;31.10;16.08;;;;;;;8.75;98.99;99653.19;4925414;29;20049;-84
2022/11/14 08:57:58;;;;;;;26.98;15.52;;;;;;;9.40;94.54;99646.63;4915034;29;20079;-83
2022/11/14 09:01:05;;;;;;;23.92;14.52;;;;;;;9.65;93.50;99645.38;4910123;29;20046;-85
2022/11/14 09:04:08;;;;;;;24.63;15.52;;;;;;;9.60;91.43;99636.94;4915793;29;20216;-86
2022/11/14 09:07:11;;;;;;;26.13;14.65;;;;;;;9.58;92.16;99636.19;4894129;29;20048;-85
2022/11/14 09:10:15;;;;;;;23.45;14.00;;;;;;;10.02;89.60;99642.63;4904184;29;20127;-86
2022/11/14 09:13:18;;;;;;;23.40;14.48;;;;;;;9.77;90.41;99630.00;4917734;29;20075;-87
2022/11/14 09:16:22;;;;;;;22.48;13.07;;;;;;;10.18;88.97;99632.22;4906902;29;20056;-87
2022/11/14 09:19:25;;;;;;;24.15;13.95;;;;;;;9.51;90.43;99627.78;4909657;29;20166;-87
2022/11/14 09:22:30;;;;;;;23.08;12.85;;;;;;;10.34;87.44;99631.41;4895473;29;20128;-90
2022/11/14 09:25:34;;;;;;;23.13;14.05;;;;;;;10.25;86.55;99635.34;4898994;29;20066;-86
2022/11/14 09:28:39;;;;;;;21.92;13.63;;;;;;;10.31;86.73;99632.41;4915763;29;20127;-85
2022/11/14 09:31:43;;;;;;;22.80;13.55;;;;;;;10.86;84.61;99633.88;4911039;29;20139;-87
2022/11/14 09:34:47;;;;;;;26.05;15.02;;;;;;;11.01;83.49;99627.78;4892992;29;20550;-84
2022/11/14 09:38:05;;;;;;;22.55;13.10;;;;;;;11.34;81.22;99620.69;4869113;29;20059;-87
2022/11/14 09:41:08;;;;;;;24.65;14.18;;;;;;;11.34;79.42;99616.28;4883704;29;20045;-87
2022/11/14 09:44:24;;;;;;;21.38;12.93;;;;;;;11.49;79.98;99616.31;4886095;29;20049;-86
2022/11/14 09:47:47;;;;;;;20.23;12.43;;;;;;;11.83;78.73;99608.22;4872324;29;20114;-87
2022/11/14 09:51:08;;;;;;;20.83;12.68;;;;;;;12.07;76.03;99607.66;4870726;29;20040;-86
2022/11/14 09:54:23;;;;;;;19.57;11.57;;;;;;;11.80;77.67;99605.78;4882976;29;20087;-87
2022/11/14 09:57:28;;;;;;;20.38;12.15;;;;;;;12.23;75.61;99597.06;4868005;29;20325;-86
2022/11/14 10:00:53;;;;;;;21.77;11.45;;;;;;;12.44;74.77;99592.25;4869098;29;20049;-86
2022/11/14 10:04:39;;;;;;;21.73;12.32;;;;;;;11.95;75.07;99590.84;4864708;29;20058;-87
2022/11/14 10:08:07;;;;;;;17.98;11.60;;;;;;;12.04;75.63;99587.69;4871535;29;20104;-87
2022/11/14 10:12:00;;;;;;;15.73;10.60;;;;;;;12.56;74.18;99587.16;4907924;29;20124;-86
2022/11/14 10:15:25;;;;;;;16.90;10.87;;;;;;;12.56;73.21;99577.50;4868844;29;20055;-88
2022/11/14 10:18:49;;;;;;;20.40;11.00;;;;;;;12.47;74.18;99572.81;4877050;29;20325;-86
2022/11/14 10:22:25;;;;;;;18.42;11.65;;;;;;;12.71;73.07;99569.56;4864179;29;20061;-87
2022/11/14 10:25:53;;;;;;;20.15;11.20;;;;;;;12.76;72.41;99556.94;4811811;29;20088;-85
2022/11/14 10:29:29;;;;;;;18.02;10.63;;;;;;;12.65;71.93;99554.16;4821570;29;20078;-86
2022/11/14 10:33:10;;;;;;;18.15;11.25;;;;;;;12.98;72.00;99554.69;4826784;29;20113;-89
2022/11/14 10:36:23;;;;;;;16.88;11.48;;;;;;;12.91;71.04;99547.22;4824474;29;20053;-86
2022/11/14 10:39:40;;;;;;;17.95;10.70;;;;;;;13.10;70.42;99535.47;4834811;29;20523;-87
2022/11/14 10:42:49;;;;;;;16.83;9.60;;;;;;;13.70;68.59;99550.78;4830470;29;20046;-87
2022/11/14 10:46:09;;;;;;;18.35;9.95;;;;;;;13.52;67.69;99532.69;4831192;29;20050;-89
2022/11/14 10:49:24;;;;;;;13.50;9.25;;;;;;;13.60;66.86;99528.66;4833814;29;21876;-86
2022/11/14 10:52:40;;;;;;;15.55;9.55;;;;;;;13.70;66.66;99520.97;4822048;29;20578;-86
2022/11/14 10:55:48;;;;;;;16.27;8.65;;;;;;;15.36;62.56;99521.34;4823173;29;20360;-87
2022/11/14 10:58:53;;;;;;;14.93;9.35;;;;;;;14.85;62.64;99520.72;4809907;29;20079;-87
2022/11/14 11:01:57;;;;;;;15.27;9.40;;;;;;;15.28;61.58;99518.44;4899260;29;20079;-87
2022/11/14 11:05:13;;;;;;;15.23;8.60;;;;;;;15.94;59.69;99521.34;4896741;29;20044;-88
2022/11/14 11:11:52;;;;;;;15.50;9.30;;;;;;;14.82;61.31;99506.94;4904282;29;20044;-87
2022/11/14 11:15:18;;;;;;;15.50;8.90;;;;;;;14.24;63.71;99513.69;4896269;29;20390;-87
2022/11/14 11:18:29;;;;;;;13.90;8.80;;;;;;;14.63;62.99;99497.72;4920406;29;20055;-86
2022/11/14 11:21:49;;;;;;;13.45;8.52;;;;;;;14.88;63.47;99488.84;4905191;29;20067;-88
2022/11/14 11:24:53;;;;;;;11.90;7.93;;;;;;;15.71;60.08;99484.38;4896831;29;20528;-89
2022/11/14 11:28:20;;;;;;;13.60;8.10;;;;;;;15.87;58.47;99486.66;4889403;29;20067;-88
2022/11/14 11:31:24;;;;;;;11.65;7.93;;;;;;;15.81;59.05;99474.78;4881713;29;20060;-86
2022/11/14 11:34:30;;;;;;;15.75;8.70;;;;;;;15.93;58.96;99478.22;4902367;29;20044;-88
2022/11/14 11:37:42;;;;;;;12.55;8.30;;;;;;;15.05;62.07;99478.81;4897021;29;20103;-87
2022/11/14 11:40:59;;;;;;;15.88;8.38;;;;;;;15.64;60.51;99465.53;4901317;29;20116;-88
2022/11/14 11:44:06;;;;;;;12.38;8.00;;;;;;;16.57;57.20;99467.88;4899164;29;20049;-88
2022/11/14 11:47:15;;;;;;;14.93;8.82;;;;;;;16.33;57.54;99461.00;4903872;29;20036;-86
2022/11/14 11:50:20;;;;;;;14.35;8.13;;;;;;;15.70;59.82;99462.41;4908455;29;20069;-86
2022/11/14 11:53:38;;;;;;;12.32;8.23;;;;;;;15.88;59.32;99464.53;4904964;29;20045;-87
2022/11/14 11:56:44;;;;;;;15.88;8.52;;;;;;;14.88;62.90;99462.47;4906429;29;20405;-88
2022/11/14 11:59:54;;;;;;;15.23;9.20;;;;;;;15.76;60.81;99456.66;4889479;29;20465;-89
2022/11/14 12:03:12;;;;;;;13.15;8.00;;;;;;;15.82;60.25;99457.97;4892818;29;20116;-86
2022/11/14 12:06:23;;;;;;;13.88;8.93;;;;;;;15.08;62.19;99454.81;4908912;29;20048;-87
2022/11/14 12:09:35;;;;;;;13.60;8.32;;;;;;;15.22;62.22;99450.28;4905783;29;20425;-86
2022/11/14 12:12:41;;;;;;;13.60;8.57;;;;;;;16.05;60.13;99447.38;4892042;29;20068;-88
2022/11/14 12:15:57;;;;;;;14.35;8.98;;;;;;;15.58;60.61;99444.91;4905729;29;20488;-86
2022/11/14 12:19:07;;;;;;;15.23;9.20;;;;;;;15.67;61.27;99445.97;4899695;29;20056;-87
2022/11/14 12:22:29;;;;;;;15.90;9.60;;;;;;;16.09;59.98;99435.56;4889364;29;20048;-87
2022/11/14 12:25:50;;;;;;;15.75;9.23;;;;;;;15.97;60.00;99436.56;4881571;29;20880;-88
2022/11/14 12:28:58;;;;;;;;;;;;;;;15.62;61.75;99436.59;4906857;29;20051;-89
2022/11/14 12:32:07;;;;;;;13.25;8.60;;;;;;;16.47;58.85;99432.56;4896689;29;19923;-89
2022/11/14 12:35:29;;;;;;;14.25;9.20;;;;;;;15.87;60.40;99431.16;4895231;29;20043;-87
2022/11/14 12:38:46;;;;;;;16.17;9.05;;;;;;;15.73;60.31;99429.66;4898383;29;20102;-86
2022/11/14 12:42:00;;;;;;;16.48;9.60;;;;;;;15.26;63.23;99422.69;4888073;29;20453;-89
2022/11/14 12:45:42;;;;;;;14.07;8.02;;;;;;;15.85;60.63;99411.94;4894892;29;20101;-89
2022/11/14 12:48:46;;;;;;;14.45;8.60;;;;;;;15.36;62.66;99413.09;4898176;29;20049;-87
2022/11/14 12:51:50;;;;;;;13.70;8.30;;;;;;;16.44;59.88;99406.38;4894963;29;20048;-87
2022/11/14 12:54:54;;;;;;;16.05;8.70;;;;;;;15.88;60.45;99414.34;4892664;29;20052;-86
2022/11/14 12:58:09;;;;;;;14.82;8.65;;;;;;;16.36;59.91;99407.88;4894149;29;20487;-87
2022/11/14 13:01:14;;;;;;;16.02;9.90;;;;;;;15.85;60.89;99410.16;4910692;29;20504;-93
2022/11/14 13:04:41;;;;;;;14.05;8.82;;;;;;;16.77;59.84;99404.53;4908789;29;20044;-85
2022/11/14 13:08:03;;;;;;;14.38;8.93;;;;;;;16.71;59.77;99405.03;4899067;29;20037;-87
2022/11/14 13:21:44;;;;;;;15.05;9.95;;;;;;;17.11;58.65;99399.03;4896052;29;20067;-87
2022/11/14 13:22:10;;;;;;;15.98;10.10;;;;;;;16.68;60.65;99387.59;4910059;29;20048;-90
2022/11/14 13:25:19;;;;;;;16.48;10.10;;;;;;;16.97;59.81;99386.09;4920729;29;20079;-87
2022/11/14 13:28:43;;;;;;;14.93;10.05;;;;;;;16.43;60.67;99379.13;4909687;29;20087;-88
2022/11/14 13:31:49;;;;;;;19.80;10.40;;;;;;;16.62;60.99;99383.69;4900911;29;20495;-88
2022/11/14 13:35:02;;;;;;;16.67;10.32;;;;;;;16.65;60.80;99377.28;4894867;29;20056;-86
2022/11/14 13:38:38;;;;;;;15.88;10.68;;;;;;;16.42;61.55;99376.59;4918292;29;20059;-82
2022/11/14 13:41:57;;;;;;;16.45;10.57;;;;;;;16.04;62.79;99371.72;4903851;29;20153;-91
2022/11/14 13:45:28;;;;;;;15.65;10.25;;;;;;;15.92;63.48;99362.09;4896523;29;20084;-86
2022/11/14 13:49:10;;;;;;;16.33;10.98;;;;;;;15.21;66.02;99369.44;4906676;29;20056;-89
2022/11/14 13:52:14;;;;;;;18.45;10.32;;;;;;;15.13;67.16;99368.25;4922352;29;20056;-87
2022/11/14 13:55:29;;;;;;;18.05;10.70;;;;;;;15.48;65.69;99366.44;4917269;29;20048;-87
2022/11/14 13:58:57;;;;;;;16.42;10.48;;;;;;;14.87;67.95;99355.28;4907273;29;20055;-87
2022/11/14 14:02:23;;;;;;;19.75;12.27;;;;;;;15.11;67.20;99356.13;4896198;29;20059;-87
2022/11/14 14:06:10;;;;;;;18.23;11.52;;;;;;;14.18;70.88;99356.06;4908756;29;20412;-86
2022/11/14 14:09:26;;;;;;;19.45;12.35;;;;;;;14.17;71.12;99357.84;4916079;29;20134;-86
2022/11/14 14:13:00;;;;;;;21.48;14.02;;;;;;;13.34;73.88;99350.56;4903370;29;20064;-86
2022/11/14 14:16:16;;;;;;;21.00;12.95;;;;;;;12.74;77.35;99352.94;4915059;29;20052;-85
2022/11/14 14:19:35;;;;;;;19.02;12.43;;;;;;;12.36;79.71;99354.56;4901343;29;20033;-85
2022/11/14 14:23:15;;;;;;;20.95;13.30;;;;;;;12.03;80.85;99349.63;4904067;29;20044;-86
2022/11/14 14:26:54;;;;;;;18.67;11.32;;;;;;;11.94;80.71;99348.47;4904473;29;20148;-86
2022/11/14 14:30:09;;;;;;;20.17;12.63;;;;;;;11.12;83.72;99346.59;4912958;29;20052;-88
2022/11/14 14:33:14;;;;;;;19.48;12.63;;;;;;;10.86;85.12;99356.88;4913206;29;20096;-85
2022/11/14 14:36:28;;;;;;;21.48;13.07;;;;;;;10.36;88.46;99346.69;4912258;29;20063;-85
2022/11/14 14:39:31;;;;;;;24.67;13.65;;;;;;;10.33;88.71;99341.63;4895213;29;20092;-85
2022/11/14 14:42:39;;;;;;;27.52;14.30;;;;;;;9.58;93.29;99345.81;4922503;29;20073;-84